Time;durP1;ratioP1;P1;durP2;ratioP2;P2;SDS_P1;SDS_P2;PMS_P1;PMS_P2;Temp;Humidity;BMP_temperature;BMP_pressure;BME280_temperature;BME280_humidity;BME280_pressure;Samples;Min_cycle;Max_cycle;Signal;HPM_P1;HPM_P2
2024/03/23 00:00:47;;;;;;;6.00;4.00;;;;;;;;;;7570049;19;20025;-73
2024/03/23 00:03:19;;;;;;;7.65;4.03;;;;;;;;;;7585133;19;20053;-73
2024/03/23 00:05:50;;;;;;;8.27;4.65;;;;;;;;;;7567655;19;20228;-72
2024/03/23 00:08:22;;;;;;;7.18;4.03;;;;;;;;;;7533807;19;20650;-72
2024/03/23 00:10:54;;;;;;;6.30;4.47;;;;;;;;;;7597128;19;20117;-72
2024/03/23 00:13:25;;;;;;;9.23;4.43;;;;;;;;;;7584587;19;20139;-73
2024/03/23 00:15:57;;;;;;;8.32;4.55;;;;;;;;;;7577282;19;20015;-73
2024/03/23 00:18:28;;;;;;;6.63;3.95;;;;;;;;;;7572437;19;20018;-73
2024/03/23 00:21:02;;;;;;;6.88;4.20;;;;;;;;;;7574413;19;20029;-73
2024/03/23 00:23:33;;;;;;;6.32;4.07;;;;;;;;;;7581438;19;20135;-73
2024/03/23 00:26:05;;;;;;;7.78;4.55;;;;;;;;;;7583598;19;20026;-74
2024/03/23 00:28:36;;;;;;;8.43;6.00;;;;;;;;;;7582207;19;20557;-73
2024/03/23 00:31:09;;;;;;;11.60;7.07;;;;;;;;;;7576667;19;20021;-73
2024/03/23 00:33:40;;;;;;;11.67;6.63;;;;;;;;;;7578802;19;20040;-74
2024/03/23 00:36:12;;;;;;;11.50;5.72;;;;;;;;;;7568701;19;20594;-73
2024/03/23 00:38:44;;;;;;;11.27;5.80;;;;;;;;;;7587293;19;20512;-74
2024/03/23 00:41:16;;;;;;;9.60;4.78;;;;;;;;;;7570375;19;20268;-73
2024/03/23 00:43:47;;;;;;;7.38;5.18;;;;;;;;;;7586779;19;20022;-73
2024/03/23 00:46:19;;;;;;;9.98;4.60;;;;;;;;;;7570067;19;20018;-73
2024/03/23 00:48:50;;;;;;;10.43;4.80;;;;;;;;;;7575428;19;20629;-73
2024/03/23 00:51:22;;;;;;;11.52;5.53;;;;;;;;;;7580467;19;20500;-74
2024/03/23 00:53:54;;;;;;;13.15;5.85;;;;;;;;;;7562950;19;20015;-74
2024/03/23 00:56:25;;;;;;;11.85;5.63;;;;;;;;;;7547406;19;21974;-73
2024/03/23 00:58:57;;;;;;;11.40;5.10;;;;;;;;;;7559652;19;20022;-73
2024/03/23 01:01:29;;;;;;;15.48;5.70;;;;;;;;;;7553038;19;20116;-74
2024/03/23 01:04:01;;;;;;;7.80;4.93;;;;;;;;;;7561197;19;20019;-73
2024/03/23 01:06:32;;;;;;;7.13;4.32;;;;;;;;;;7549409;19;20029;-73
2024/03/23 01:09:04;;;;;;;5.78;4.32;;;;;;;;;;7554807;19;21478;-74
2024/03/23 01:11:35;;;;;;;9.13;4.43;;;;;;;;;;7575151;19;20108;-73
2024/03/23 01:14:07;;;;;;;8.75;4.38;;;;;;;;;;7553618;19;20030;-74
2024/03/23 01:16:39;;;;;;;7.70;4.60;;;;;;;;;;7559208;19;20030;-73
2024/03/23 01:19:11;;;;;;;9.00;4.30;;;;;;;;;;7564380;19;20018;-73
2024/03/23 01:21:43;;;;;;;6.63;3.65;;;;;;;;;;7580512;19;20114;-73
2024/03/23 01:24:15;;;;;;;7.45;3.53;;;;;;;;;;7578679;19;20023;-74
2024/03/23 01:26:46;;;;;;;6.75;3.67;;;;;;;;;;7584470;19;20010;-74
2024/03/23 01:29:18;;;;;;;9.38;3.95;;;;;;;;;;7567905;19;21209;-73
2024/03/23 01:31:49;;;;;;;7.72;3.50;;;;;;;;;;7584221;19;20031;-74
2024/03/23 01:34:21;;;;;;;7.50;4.13;;;;;;;;;;7562109;19;20011;-74
2024/03/23 01:36:53;;;;;;;6.70;4.38;;;;;;;;;;7578062;19;20018;-74
2024/03/23 01:39:24;;;;;;;8.13;5.28;;;;;;;;;;7569465;19;20011;-72
2024/03/23 01:41:56;;;;;;;11.23;4.63;;;;;;;;;;7574619;19;20902;-72
2024/03/23 01:44:28;;;;;;;16.45;6.38;;;;;;;;;;7570388;19;20054;-75
2024/03/23 01:46:59;;;;;;;12.05;5.25;;;;;;;;;;7567088;19;20014;-73
2024/03/23 01:49:31;;;;;;;17.00;7.65;;;;;;;;;;7566480;19;20015;-73
2024/03/23 01:52:03;;;;;;;11.18;6.00;;;;;;;;;;7564548;19;20014;-73
2024/03/23 01:54:35;;;;;;;17.30;6.80;;;;;;;;;;7585803;19;20038;-73
2024/03/23 01:57:07;;;;;;;12.13;5.68;;;;;;;;;;7574262;19;20018;-73
2024/03/23 01:59:38;;;;;;;9.63;4.97;;;;;;;;;;7577778;19;20031;-73
2024/03/23 02:02:11;;;;;;;8.30;5.15;;;;;;;;;;7570988;19;20014;-73
2024/03/23 02:04:42;;;;;;;8.40;4.65;;;;;;;;;;7583979;19;20019;-73
2024/03/23 02:07:14;;;;;;;6.68;4.00;;;;;;;;;;7577171;19;21103;-73
2024/03/23 02:09:46;;;;;;;6.32;4.28;;;;;;;;;;7574496;19;20018;-73
2024/03/23 02:12:18;;;;;;;7.22;3.90;;;;;;;;;;7542957;19;20098;-73
2024/03/23 02:14:50;;;;;;;5.30;3.83;;;;;;;;;;7587710;19;20032;-73
2024/03/23 02:17:21;;;;;;;5.35;3.53;;;;;;;;;;7574561;19;20018;-73
2024/03/23 02:19:53;;;;;;;5.75;3.67;;;;;;;;;;7587942;19;20036;-73
2024/03/23 02:22:25;;;;;;;7.72;3.50;;;;;;;;;;7588274;19;20368;-73
2024/03/23 02:24:56;;;;;;;3.88;3.00;;;;;;;;;;7564102;19;21031;-73
2024/03/23 02:27:28;;;;;;;4.85;3.50;;;;;;;;;;7580527;19;20043;-72
2024/03/23 02:29:59;;;;;;;5.13;3.10;;;;;;;;;;7590064;19;20022;-73
2024/03/23 02:32:32;;;;;;;5.35;3.30;;;;;;;;;;7574162;19;20543;-73
2024/03/23 02:35:04;;;;;;;5.07;2.97;;;;;;;;;;7575908;19;20035;-74
2024/03/23 02:37:36;;;;;;;7.47;3.13;;;;;;;;;;7574668;19;20585;-72
2024/03/23 02:40:08;;;;;;;7.35;3.55;;;;;;;;;;7570855;19;20298;-72
2024/03/23 02:42:40;;;;;;;4.40;3.15;;;;;;;;;;7593955;19;20065;-73
2024/03/23 02:45:12;;;;;;;6.38;3.30;;;;;;;;;;7584914;19;20061;-72
2024/03/23 02:47:43;;;;;;;4.72;3.10;;;;;;;;;;7578252;19;20015;-74
2024/03/23 02:50:15;;;;;;;6.45;2.95;;;;;;;;;;7594199;19;21109;-74
2024/03/23 02:52:47;;;;;;;9.20;3.10;;;;;;;;;;7584933;19;20722;-73
2024/03/23 02:55:19;;;;;;;6.05;3.10;;;;;;;;;;7558671;19;20034;-73
2024/03/23 02:57:50;;;;;;;8.02;2.65;;;;;;;;;;7571748;19;20011;-73
2024/03/23 03:00:22;;;;;;;4.53;2.80;;;;;;;;;;7569891;19;21430;-72
2024/03/23 03:02:53;;;;;;;6.43;3.38;;;;;;;;;;7594080;19;20014;-73
2024/03/23 03:05:25;;;;;;;5.97;2.95;;;;;;;;;;7588773;19;21019;-73
2024/03/23 03:07:56;;;;;;;5.40;3.05;;;;;;;;;;7592697;19;20023;-73
2024/03/23 03:10:28;;;;;;;3.75;2.63;;;;;;;;;;7575185;19;21366;-73
2024/03/23 03:13:00;;;;;;;4.32;3.20;;;;;;;;;;7590593;19;20705;-73
2024/03/23 03:15:32;;;;;;;5.25;3.05;;;;;;;;;;7575614;19;20235;-74
2024/03/23 03:18:04;;;;;;;6.03;3.22;;;;;;;;;;7575992;19;20022;-73
2024/03/23 03:20:39;;;;;;;6.57;3.22;;;;;;;;;;7574781;19;20836;-73
2024/03/23 03:23:11;;;;;;;5.90;2.88;;;;;;;;;;7569779;19;20081;-73
2024/03/23 03:25:43;;;;;;;6.88;3.00;;;;;;;;;;7566048;19;20022;-73
2024/03/23 03:28:15;;;;;;;4.82;3.13;;;;;;;;;;7573494;19;20006;-74
2024/03/23 03:30:46;;;;;;;5.75;2.90;;;;;;;;;;7576832;19;20027;-75
2024/03/23 03:33:18;;;;;;;4.85;2.72;;;;;;;;;;7566017;19;20014;-73
2024/03/23 03:35:49;;;;;;;7.15;3.28;;;;;;;;;;7565113;19;20035;-73
2024/03/23 03:38:21;;;;;;;4.60;2.83;;;;;;;;;;7564533;19;20018;-72
2024/03/23 03:40:53;;;;;;;4.00;2.92;;;;;;;;;;7568623;19;20626;-72
2024/03/23 03:43:25;;;;;;;5.95;2.63;;;;;;;;;;7574879;19;20082;-73
2024/03/23 03:45:57;;;;;;;5.13;3.00;;;;;;;;;;7567838;19;20014;-72
2024/03/23 03:48:29;;;;;;;5.13;3.22;;;;;;;;;;7564432;19;20090;-73
2024/03/23 03:51:00;;;;;;;5.45;3.28;;;;;;;;;;7576411;19;20022;-73
2024/03/23 03:53:32;;;;;;;4.45;2.95;;;;;;;;;;7560529;19;20037;-73
2024/03/23 03:56:04;;;;;;;7.22;2.78;;;;;;;;;;7570850;19;20018;-73
2024/03/23 03:58:35;;;;;;;4.88;2.83;;;;;;;;;;7575770;19;20082;-73
2024/03/23 04:01:08;;;;;;;5.50;3.20;;;;;;;;;;7589550;19;20626;-73
2024/03/23 04:03:43;;;;;;;6.80;3.08;;;;;;;;;;7555394;19;20040;-73
2024/03/23 04:06:21;;;;;;;5.95;3.17;;;;;;;;;;7592831;19;20106;-73
2024/03/23 04:08:53;;;;;;;4.00;2.40;;;;;;;;;;7576671;19;20015;-73
2024/03/23 04:11:24;;;;;;;3.00;2.67;;;;;;;;;;7595702;19;20022;-72
2024/03/23 04:13:56;;;;;;;6.00;3.22;;;;;;;;;;7592214;19;20029;-72
2024/03/23 04:16:28;;;;;;;4.72;3.38;;;;;;;;;;7592786;19;20021;-73
2024/03/23 04:18:59;;;;;;;3.58;2.95;;;;;;;;;;7574609;19;20030;-72
2024/03/23 04:21:31;;;;;;;5.88;3.13;;;;;;;;;;7565828;19;20037;-73
2024/03/23 04:24:02;;;;;;;4.82;3.03;;;;;;;;;;7583230;19;20018;-73
2024/03/23 04:26:44;;;;;;;4.80;3.03;;;;;;;;;;7533871;19;20014;-73
2024/03/23 04:29:16;;;;;;;5.32;3.22;;;;;;;;;;7587864;19;20022;-74
2024/03/23 04:31:48;;;;;;;7.22;3.28;;;;;;;;;;7561647;19;20467;-73
2024/03/23 04:34:19;;;;;;;4.10;2.90;;;;;;;;;;7592058;19;20018;-73
2024/03/23 04:36:51;;;;;;;4.90;3.08;;;;;;;;;;7578690;19;20018;-73
2024/03/23 04:39:22;;;;;;;6.03;3.13;;;;;;;;;;7581393;19;20464;-73
2024/03/23 04:41:54;;;;;;;4.00;2.50;;;;;;;;;;7580718;19;20265;-73
2024/03/23 04:44:25;;;;;;;3.10;2.50;;;;;;;;;;7590177;19;20035;-74
2024/03/23 04:47:00;;;;;;;5.20;2.70;;;;;;;;;;7568811;19;20580;-73
2024/03/23 04:49:32;;;;;;;7.07;3.33;;;;;;;;;;7592241;19;20034;-73
2024/03/23 04:52:05;;;;;;;8.63;3.28;;;;;;;;;;7585125;19;20014;-72
2024/03/23 04:54:36;;;;;;;3.08;2.30;;;;;;;;;;7589765;19;20655;-75
2024/03/23 04:57:08;;;;;;;4.57;2.78;;;;;;;;;;7585937;19;20543;-73
2024/03/23 04:59:39;;;;;;;4.28;2.45;;;;;;;;;;7579864;19;20010;-72
2024/03/23 05:02:11;;;;;;;4.15;2.95;;;;;;;;;;7581027;19;20029;-72
2024/03/23 05:04:42;;;;;;;10.48;2.38;;;;;;;;;;7564634;19;20217;-75
2024/03/23 05:07:14;;;;;;;4.65;2.95;;;;;;;;;;7561766;19;20010;-72
2024/03/23 05:09:47;;;;;;;3.45;2.53;;;;;;;;;;7569407;19;20048;-72
2024/03/23 05:12:19;;;;;;;3.93;2.67;;;;;;;;;;7572370;19;20830;-73
2024/03/23 05:14:51;;;;;;;4.70;2.42;;;;;;;;;;7576366;19;20479;-72
2024/03/23 05:17:24;;;;;;;4.63;2.70;;;;;;;;;;7568744;19;20380;-73
2024/03/23 05:19:56;;;;;;;5.05;2.33;;;;;;;;;;7588911;19;20946;-75
2024/03/23 05:22:27;;;;;;;4.22;2.50;;;;;;;;;;7583237;19;20458;-72
2024/03/23 05:24:59;;;;;;;3.92;2.47;;;;;;;;;;7575105;19;20026;-74
2024/03/23 05:27:30;;;;;;;3.63;2.30;;;;;;;;;;7573215;19;20093;-73
2024/03/23 05:30:03;;;;;;;3.00;2.45;;;;;;;;;;7579960;19;20029;-74
2024/03/23 05:32:35;;;;;;;4.15;2.25;;;;;;;;;;7589045;19;20037;-73
2024/03/23 05:35:07;;;;;;;4.55;2.80;;;;;;;;;;7578866;19;20602;-73
2024/03/23 05:37:39;;;;;;;3.30;2.38;;;;;;;;;;7589549;19;20023;-73
2024/03/23 05:40:12;;;;;;;6.00;2.90;;;;;;;;;;7584360;19;20018;-73
2024/03/23 05:42:44;;;;;;;4.28;2.30;;;;;;;;;;7590812;19;20050;-73
2024/03/23 05:45:18;;;;;;;3.13;2.10;;;;;;;;;;7577359;19;20736;-74
2024/03/23 05:47:50;;;;;;;5.80;2.28;;;;;;;;;;7589910;19;20029;-73
2024/03/23 05:50:22;;;;;;;4.40;2.30;;;;;;;;;;7594114;19;20641;-74
2024/03/23 05:52:54;;;;;;;4.97;2.22;;;;;;;;;;7591591;19;20041;-73
2024/03/23 05:55:27;;;;;;;3.55;2.20;;;;;;;;;;7553028;19;20331;-74
2024/03/23 05:57:59;;;;;;;3.30;2.00;;;;;;;;;;7584455;19;20634;-73
2024/03/23 06:00:31;;;;;;;4.53;2.40;;;;;;;;;;7589342;19;21221;-73
2024/03/23 06:03:03;;;;;;;3.45;2.42;;;;;;;;;;7574507;19;20018;-73
2024/03/23 06:05:35;;;;;;;3.45;2.17;;;;;;;;;;7579863;19;20022;-73
2024/03/23 06:08:09;;;;;;;2.85;2.00;;;;;;;;;;7581270;19;20014;-74
2024/03/23 06:10:41;;;;;;;5.00;2.10;;;;;;;;;;7596380;19;20107;-74
2024/03/23 06:13:14;;;;;;;3.95;2.50;;;;;;;;;;7586998;19;21046;-73
2024/03/23 06:15:46;;;;;;;3.97;1.95;;;;;;;;;;7591114;19;20023;-74
2024/03/23 06:18:18;;;;;;;3.97;2.40;;;;;;;;;;7590106;19;20443;-73
2024/03/23 06:20:50;;;;;;;4.28;2.28;;;;;;;;;;7592553;19;20018;-74
2024/03/23 06:23:21;;;;;;;3.65;2.55;;;;;;;;;;7580961;19;20034;-74
2024/03/23 06:25:53;;;;;;;4.32;2.75;;;;;;;;;;7578169;19;20445;-73
2024/03/23 06:28:25;;;;;;;5.63;2.30;;;;;;;;;;7592224;19;20015;-73
2024/03/23 06:30:57;;;;;;;3.03;2.50;;;;;;;;;;7577663;19;20050;-73
2024/03/23 06:33:28;;;;;;;3.08;1.95;;;;;;;;;;7579203;19;20025;-74
2024/03/23 06:36:00;;;;;;;4.35;1.80;;;;;;;;;;7583242;19;20022;-73
2024/03/23 06:38:31;;;;;;;5.57;1.83;;;;;;;;;;7588558;19;20018;-74
2024/03/23 06:41:04;;;;;;;4.40;1.85;;;;;;;;;;7595042;19;20011;-74
2024/03/23 06:43:35;;;;;;;6.90;2.00;;;;;;;;;;7586938;19;20018;-74
2024/03/23 06:46:07;;;;;;;4.05;1.90;;;;;;;;;;7594022;19;20361;-73
2024/03/23 06:48:39;;;;;;;3.78;1.60;;;;;;;;;;7584500;19;21068;-73
2024/03/23 06:51:10;;;;;;;2.42;1.80;;;;;;;;;;7594952;19;20044;-73
2024/03/23 06:53:42;;;;;;;4.97;2.00;;;;;;;;;;7592750;19;20038;-73
2024/03/23 06:56:13;;;;;;;4.50;1.50;;;;;;;;;;7579192;19;20664;-73
2024/03/23 06:58:45;;;;;;;2.28;1.80;;;;;;;;;;7564219;19;20023;-72
2024/03/23 07:01:17;;;;;;;3.17;1.77;;;;;;;;;;7577312;19;20640;-72
2024/03/23 07:03:48;;;;;;;2.25;1.75;;;;;;;;;;7574013;19;20014;-73
2024/03/23 07:06:20;;;;;;;3.58;1.90;;;;;;;;;;7573322;19;20015;-73
2024/03/23 07:08:52;;;;;;;5.28;1.63;;;;;;;;;;7579620;19;20580;-73
2024/03/23 07:11:24;;;;;;;2.78;1.67;;;;;;;;;;7589023;19;20014;-72
2024/03/23 07:13:56;;;;;;;3.80;1.50;;;;;;;;;;7575074;19;21465;-73
2024/03/23 07:16:28;;;;;;;3.30;1.40;;;;;;;;;;7578033;19;20022;-73
2024/03/23 07:18:59;;;;;;;4.35;1.75;;;;;;;;;;7572118;19;20019;-73
2024/03/23 07:21:31;;;;;;;2.65;1.50;;;;;;;;;;7568356;19;20402;-73
2024/03/23 07:24:03;;;;;;;3.20;1.60;;;;;;;;;;7594299;19;20482;-73
2024/03/23 07:26:35;;;;;;;2.13;1.50;;;;;;;;;;7573223;19;20041;-73
2024/03/23 07:29:07;;;;;;;3.13;1.95;;;;;;;;;;7580563;19;20054;-72
2024/03/23 07:31:39;;;;;;;3.30;1.88;;;;;;;;;;7568902;19;20018;-73
2024/03/23 07:34:11;;;;;;;5.47;1.90;;;;;;;;;;7594481;19;20015;-73
2024/03/23 07:36:42;;;;;;;2.78;1.33;;;;;;;;;;7568055;19;20898;-73
2024/03/23 07:39:14;;;;;;;6.13;2.05;;;;;;;;;;7578580;19;20018;-73
2024/03/23 07:41:46;;;;;;;2.58;1.98;;;;;;;;;;7584457;19;20280;-73
2024/03/23 07:44:18;;;;;;;3.58;1.60;;;;;;;;;;7585103;19;20523;-72
2024/03/23 07:46:49;;;;;;;4.00;1.52;;;;;;;;;;7579470;19;20519;-75
2024/03/23 07:49:21;;;;;;;6.53;2.25;;;;;;;;;;7581140;19;20727;-71
2024/03/23 07:51:52;;;;;;;6.13;2.47;;;;;;;;;;7574454;19;20824;-72
2024/03/23 07:54:24;;;;;;;6.80;2.38;;;;;;;;;;7588618;19;20035;-74
2024/03/23 07:56:55;;;;;;;8.57;2.67;;;;;;;;;;7582555;19;20258;-74
2024/03/23 07:59:31;;;;;;;5.82;2.83;;;;;;;;;;7554234;19;20815;-74
2024/03/23 08:02:02;;;;;;;3.78;2.75;;;;;;;;;;7563987;19;20049;-74
2024/03/23 08:04:34;;;;;;;3.28;2.45;;;;;;;;;;7581302;19;20019;-74
2024/03/23 08:07:05;;;;;;;4.18;2.53;;;;;;;;;;7576089;19;20022;-75
2024/03/23 08:09:37;;;;;;;4.57;2.13;;;;;;;;;;7561253;19;20029;-74
2024/03/23 08:12:08;;;;;;;6.70;2.35;;;;;;;;;;7567593;19;20467;-72
2024/03/23 08:14:41;;;;;;;8.27;2.33;;;;;;;;;;7570162;19;20018;-75
2024/03/23 08:17:13;;;;;;;5.37;2.03;;;;;;;;;;7566835;19;20620;-73
2024/03/23 08:19:47;;;;;;;2.97;1.50;;;;;;;;;;7556501;19;20019;-74
2024/03/23 08:22:20;;;;;;;5.82;2.40;;;;;;;;;;7575232;19;20086;-73
2024/03/23 08:24:52;;;;;;;7.10;2.13;;;;;;;;;;7560926;19;20780;-73
2024/03/23 08:27:26;;;;;;;4.15;2.53;;;;;;;;;;7572143;19;20085;-74
2024/03/23 08:30:00;;;;;;;6.40;2.47;;;;;;;;;;7553617;19;20010;-75
2024/03/23 08:32:32;;;;;;;7.85;3.30;;;;;;;;;;7564144;19;20018;-73
2024/03/23 08:35:04;;;;;;;5.88;2.90;;;;;;;;;;7557540;19;20532;-73
2024/03/23 08:37:36;;;;;;;7.63;3.85;;;;;;;;;;7503758;19;20015;-73
2024/03/23 08:40:08;;;;;;;5.20;3.10;;;;;;;;;;7537662;19;20015;-73
2024/03/23 08:42:40;;;;;;;7.50;3.72;;;;;;;;;;7534397;19;20014;-73
2024/03/23 08:45:11;;;;;;;9.77;3.58;;;;;;;;;;7551005;19;20415;-73
2024/03/23 08:47:43;;;;;;;6.97;3.75;;;;;;;;;;7563688;19;20428;-73
2024/03/23 08:50:15;;;;;;;6.45;3.50;;;;;;;;;;7562407;19;21023;-73
2024/03/23 08:52:46;;;;;;;5.88;3.13;;;;;;;;;;7576288;19;20145;-72
2024/03/23 08:55:18;;;;;;;7.35;3.50;;;;;;;;;;7569583;19;20014;-72
2024/03/23 08:57:49;;;;;;;6.47;3.22;;;;;;;;;;7551799;19;20022;-73
2024/03/23 09:00:21;;;;;;;4.28;3.22;;;;;;;;;;7526473;19;20041;-75
2024/03/23 09:02:55;;;;;;;5.28;3.45;;;;;;;;;;7549678;19;20017;-72
2024/03/23 09:05:27;;;;;;;7.53;4.07;;;;;;;;;;7543518;19;20032;-73
2024/03/23 09:07:59;;;;;;;6.78;4.20;;;;;;;;;;7551114;19;20109;-75
2024/03/23 09:10:31;;;;;;;6.72;4.55;;;;;;;;;;7551092;19;20933;-72
2024/03/23 09:13:03;;;;;;;6.60;4.20;;;;;;;;;;7519035;19;20214;-73
2024/03/23 09:15:35;;;;;;;7.88;4.47;;;;;;;;;;7550798;19;20623;-72
2024/03/23 09:18:07;;;;;;;6.38;4.72;;;;;;;;;;7543382;19;20026;-72
2024/03/23 09:20:38;;;;;;;8.75;4.90;;;;;;;;;;7560427;19;20019;-72
2024/03/23 09:23:10;;;;;;;7.72;4.90;;;;;;;;;;7571122;19;20015;-72
2024/03/23 09:25:42;;;;;;;7.70;4.78;;;;;;;;;;7563280;19;20047;-74
2024/03/23 09:28:13;;;;;;;9.02;5.25;;;;;;;;;;7580169;19;20642;-74
2024/03/23 09:30:45;;;;;;;5.43;4.18;;;;;;;;;;7575016;19;20029;-74
2024/03/23 09:33:17;;;;;;;8.65;4.85;;;;;;;;;;7556061;19;20022;-76
2024/03/23 09:35:50;;;;;;;8.35;5.40;;;;;;;;;;7557717;19;20952;-74
2024/03/23 09:38:21;;;;;;;10.65;4.90;;;;;;;;;;7546138;19;20044;-74
2024/03/23 09:40:54;;;;;;;9.27;5.25;;;;;;;;;;7550368;19;20011;-74
2024/03/23 09:43:25;;;;;;;7.05;4.10;;;;;;;;;;7587008;19;20018;-77
2024/03/23 09:45:57;;;;;;;6.05;3.70;;;;;;;;;;7576949;19;20040;-76
2024/03/23 09:48:29;;;;;;;4.32;2.80;;;;;;;;;;7566694;19;20404;-73
2024/03/23 09:51:03;;;;;;;3.75;2.30;;;;;;;;;;7579147;19;20018;-75
2024/03/23 09:53:34;;;;;;;;;;;;;;;;;;7572117;19;20019;-75
2024/03/23 09:56:08;;;;;;;2.10;1.75;;;;;;;;;;7574762;19;20342;-73
2024/03/23 09:58:40;;;;;;;2.95;1.70;;;;;;;;;;7554489;19;21297;-71
2024/03/23 10:01:13;;;;;;;2.17;1.80;;;;;;;;;;7562052;19;20018;-73
2024/03/23 10:03:45;;;;;;;3.13;2.00;;;;;;;;;;7560227;19;20022;-74
2024/03/23 10:06:22;;;;;;;3.33;2.27;;;;;;;;;;7576987;19;21396;-74
2024/03/23 10:08:54;;;;;;;2.13;1.60;;;;;;;;;;7585393;19;20283;-74
2024/03/23 10:11:29;;;;;;;5.82;2.28;;;;;;;;;;7577748;19;20943;-71
2024/03/23 10:14:00;;;;;;;2.78;1.88;;;;;;;;;;7563614;19;20025;-73
2024/03/23 10:16:32;;;;;;;2.55;1.80;;;;;;;;;;7567432;19;21152;-73
2024/03/23 10:19:04;;;;;;;2.60;1.73;;;;;;;;;;7580692;19;20018;-71
2024/03/23 10:21:35;;;;;;;3.53;1.50;;;;;;;;;;7549892;19;20036;-73
2024/03/23 10:24:10;;;;;;;2.85;1.60;;;;;;;;;;7576951;19;20015;-73
2024/03/23 10:26:42;;;;;;;3.38;1.77;;;;;;;;;;7559758;19;20019;-76
2024/03/23 10:29:17;;;;;;;4.07;2.00;;;;;;;;;;7558450;19;21147;-77
2024/03/23 10:31:49;;;;;;;3.03;1.63;;;;;;;;;;7577678;19;20015;-77
2024/03/23 10:34:27;;;;;;;3.45;1.80;;;;;;;;;;7577395;19;20018;-74
2024/03/23 10:36:59;;;;;;;2.13;1.40;;;;;;;;;;7576439;19;20277;-75
2024/03/23 10:39:34;;;;;;;3.88;1.60;;;;;;;;;;7574708;19;20022;-78
2024/03/23 10:42:07;;;;;;;3.67;1.92;;;;;;;;;;7599690;19;20371;-73
2024/03/23 10:44:39;;;;;;;2.58;1.50;;;;;;;;;;7552224;19;20018;-72
2024/03/23 10:47:10;;;;;;;1.88;1.55;;;;;;;;;;7494303;19;20015;-72
2024/03/23 10:49:42;;;;;;;2.58;1.60;;;;;;;;;;7516908;19;20032;-73
2024/03/23 10:52:14;;;;;;;2.40;1.77;;;;;;;;;;7545423;19;20031;-72
2024/03/23 10:54:47;;;;;;;3.38;1.50;;;;;;;;;;7552463;19;20015;-73
2024/03/23 10:57:22;;;;;;;2.65;1.30;;;;;;;;;;7579284;19;20015;-73
2024/03/23 10:59:54;;;;;;;4.10;1.63;;;;;;;;;;7565788;19;20578;-73
2024/03/23 11:02:28;;;;;;;4.95;1.48;;;;;;;;;;7556533;19;20633;-71
2024/03/23 11:05:00;;;;;;;2.60;1.67;;;;;;;;;;7549568;19;20902;-72
2024/03/23 11:07:32;;;;;;;3.63;1.40;;;;;;;;;;7555696;19;20014;-71
2024/03/23 11:10:24;;;;;;;3.63;1.35;;;;;;;;;;7555980;19;20482;-74
2024/03/23 11:13:19;;;;;;;2.10;1.50;;;;;;;;;;7556775;19;20014;-72
2024/03/23 11:15:51;;;;;;;1.80;1.70;;;;;;;;;;7560337;19;20015;-71
2024/03/23 11:18:23;;;;;;;5.32;1.30;;;;;;;;;;7561363;19;20023;-72
2024/03/23 11:20:54;;;;;;;2.83;1.40;;;;;;;;;;7537249;19;20037;-75
2024/03/23 11:23:27;;;;;;;3.25;1.30;;;;;;;;;;7569463;19;20031;-72
2024/03/23 11:25:59;;;;;;;3.08;1.45;;;;;;;;;;7535084;19;20026;-73
2024/03/23 11:28:31;;;;;;;1.80;1.10;;;;;;;;;;7539337;19;20093;-73
2024/03/23 11:31:10;;;;;;;3.63;1.20;;;;;;;;;;7527110;19;20526;-75
2024/03/23 11:33:41;;;;;;;2.45;1.35;;;;;;;;;;7552919;19;20018;-75
2024/03/23 11:36:19;;;;;;;2.00;1.50;;;;;;;;;;7579717;19;20014;-75
2024/03/23 11:38:51;;;;;;;3.15;1.90;;;;;;;;;;7541413;19;20019;-71
2024/03/23 11:41:22;;;;;;;3.15;1.50;;;;;;;;;;7531106;19;21121;-74
2024/03/23 11:43:54;;;;;;;5.38;2.47;;;;;;;;;;7553401;19;20044;-74
2024/03/23 11:46:27;;;;;;;6.00;1.48;;;;;;;;;;7530061;19;21087;-74
2024/03/23 11:48:59;;;;;;;3.78;1.52;;;;;;;;;;7548729;19;20022;-75
2024/03/23 11:51:34;;;;;;;2.55;1.83;;;;;;;;;;7572427;19;20015;-74
2024/03/23 11:54:09;;;;;;;3.58;1.70;;;;;;;;;;7573028;19;21204;-75
2024/03/23 11:56:41;;;;;;;2.85;1.73;;;;;;;;;;7551252;19;20621;-74
2024/03/23 11:59:13;;;;;;;1.90;1.48;;;;;;;;;;7567640;19;20029;-74
2024/03/23 12:01:45;;;;;;;3.80;1.50;;;;;;;;;;7559897;19;20018;-75
2024/03/23 12:04:25;;;;;;;3.33;1.77;;;;;;;;;;7582927;19;20112;-72
2024/03/23 12:07:20;;;;;;;3.58;1.58;;;;;;;;;;7578555;19;20015;-73
2024/03/23 12:10:04;;;;;;;3.67;1.48;;;;;;;;;;7580796;19;20026;-73
2024/03/23 12:12:36;;;;;;;3.97;1.83;;;;;;;;;;7561363;19;20014;-73
2024/03/23 12:15:08;;;;;;;6.35;1.98;;;;;;;;;;7579589;19;20026;-74
2024/03/23 12:17:41;;;;;;;2.90;1.80;;;;;;;;;;7567722;19;20010;-75
2024/03/23 12:20:15;;;;;;;4.53;2.13;;;;;;;;;;7575047;19;20598;-76
2024/03/23 12:22:47;;;;;;;5.32;2.17;;;;;;;;;;7577965;19;20018;-78
2024/03/23 12:25:19;;;;;;;5.60;2.17;;;;;;;;;;7577934;19;20040;-77
2024/03/23 12:27:50;;;;;;;5.10;2.38;;;;;;;;;;7581532;19;20014;-77
2024/03/23 12:30:22;;;;;;;4.82;2.13;;;;;;;;;;7571437;19;20007;-77
2024/03/23 12:32:54;;;;;;;9.23;2.70;;;;;;;;;;7569060;19;20021;-76
2024/03/23 12:35:26;;;;;;;8.13;2.85;;;;;;;;;;7565194;19;20026;-77
2024/03/23 12:37:58;;;;;;;7.95;2.67;;;;;;;;;;7573396;19;20106;-76
2024/03/23 12:40:30;;;;;;;6.68;2.58;;;;;;;;;;7591645;19;20022;-75
2024/03/23 12:43:01;;;;;;;6.20;3.10;;;;;;;;;;7575655;19;20031;-77
2024/03/23 12:45:34;;;;;;;6.28;2.67;;;;;;;;;;7562299;19;20490;-76
2024/03/23 12:48:05;;;;;;;3.92;2.38;;;;;;;;;;7561191;19;20117;-75
2024/03/23 12:50:37;;;;;;;5.60;2.58;;;;;;;;;;7538352;19;20037;-72
2024/03/23 12:53:09;;;;;;;4.72;2.65;;;;;;;;;;7567227;19;20576;-72
2024/03/23 12:55:41;;;;;;;7.82;3.03;;;;;;;;;;7547383;19;20022;-72
2024/03/23 12:58:12;;;;;;;6.18;2.78;;;;;;;;;;7562244;19;20015;-72
2024/03/23 13:00:44;;;;;;;5.85;2.60;;;;;;;;;;7557319;19;20675;-73
2024/03/23 13:03:17;;;;;;;11.02;2.75;;;;;;;;;;7556385;19;20022;-73
2024/03/23 13:05:52;;;;;;;7.20;2.42;;;;;;;;;;7544583;19;20018;-73
2024/03/23 13:08:24;;;;;;;6.35;2.55;;;;;;;;;;7551543;19;20290;-71
2024/03/23 13:10:55;;;;;;;7.95;3.17;;;;;;;;;;7550469;19;20033;-72
2024/03/23 13:13:27;;;;;;;6.88;2.92;;;;;;;;;;7553335;19;20988;-73
2024/03/23 13:15:59;;;;;;;5.72;3.47;;;;;;;;;;7519920;19;20037;-71
2024/03/23 13:18:31;;;;;;;6.30;3.60;;;;;;;;;;7549664;19;20034;-72
2024/03/23 13:21:03;;;;;;;7.90;3.15;;;;;;;;;;7567392;19;20018;-71
2024/03/23 13:23:35;;;;;;;7.90;2.83;;;;;;;;;;7563154;19;20512;-72
2024/03/23 13:26:07;;;;;;;7.87;3.10;;;;;;;;;;7552729;19;21008;-72
2024/03/23 13:28:39;;;;;;;6.40;2.80;;;;;;;;;;7565131;19;20745;-72
2024/03/23 13:31:11;;;;;;;7.47;3.13;;;;;;;;;;7565572;19;20026;-72
2024/03/23 13:33:44;;;;;;;7.55;2.65;;;;;;;;;;7558359;19;20798;-72
2024/03/23 13:36:16;;;;;;;5.68;2.80;;;;;;;;;;7560856;19;20033;-72
2024/03/23 13:38:47;;;;;;;6.13;2.85;;;;;;;;;;7559113;19;20018;-71
2024/03/23 13:41:19;;;;;;;4.70;2.70;;;;;;;;;;7569812;19;21137;-72
2024/03/23 13:43:51;;;;;;;6.53;2.60;;;;;;;;;;7555868;19;20110;-72
2024/03/23 13:46:23;;;;;;;5.18;2.47;;;;;;;;;;7567674;19;20108;-72
2024/03/23 13:48:54;;;;;;;5.53;2.75;;;;;;;;;;7542050;19;20019;-72
2024/03/23 13:51:27;;;;;;;7.07;2.60;;;;;;;;;;7543511;19;20014;-73
2024/03/23 13:54:00;;;;;;;;;;;;;;;;;;7559573;19;20023;-73
2024/03/23 13:56:32;;;;;;;6.57;3.08;;;;;;;;;;7493672;19;19935;-73
2024/03/23 13:59:04;;;;;;;7.53;2.88;;;;;;;;;;7533854;19;20056;-74
2024/03/23 14:01:36;;;;;;;5.55;2.47;;;;;;;;;;7519012;19;20018;-73
2024/03/23 14:04:08;;;;;;;10.18;3.10;;;;;;;;;;7528695;19;20029;-73
2024/03/23 14:06:41;;;;;;;7.90;2.85;;;;;;;;;;7576996;19;20531;-73
2024/03/23 14:09:14;;;;;;;;;;;;;;;;;;7566495;19;20011;-73
2024/03/23 14:11:45;;;;;;;5.93;2.90;;;;;;;;;;7564814;19;19929;-73
2024/03/23 14:14:17;;;;;;;8.13;3.28;;;;;;;;;;7565953;19;20759;-74
2024/03/23 14:16:49;;;;;;;15.18;4.13;;;;;;;;;;7551638;19;20018;-73
2024/03/23 14:19:25;;;;;;;14.57;5.23;;;;;;;;;;7542380;19;20025;-72
2024/03/23 14:21:56;;;;;;;7.70;4.00;;;;;;;;;;7559231;19;20811;-72
2024/03/23 14:24:28;;;;;;;6.90;3.78;;;;;;;;;;7551588;19;20454;-73
2024/03/23 14:27:04;;;;;;;7.38;3.90;;;;;;;;;;7571562;19;20018;-73
2024/03/23 14:29:37;;;;;;;8.82;3.83;;;;;;;;;;7557406;19;20015;-72
2024/03/23 14:32:09;;;;;;;8.15;4.43;;;;;;;;;;7512985;19;20021;-73
2024/03/23 14:34:40;;;;;;;11.07;5.55;;;;;;;;;;7540412;19;20040;-73
2024/03/23 14:37:12;;;;;;;14.90;5.97;;;;;;;;;;7565420;19;20897;-74
2024/03/23 14:39:45;;;;;;;14.13;6.40;;;;;;;;;;7574774;19;20049;-75
2024/03/23 14:42:17;;;;;;;15.43;5.97;;;;;;;;;;7568787;19;20109;-74
2024/03/23 14:44:48;;;;;;;9.82;5.15;;;;;;;;;;7537753;19;20964;-74
2024/03/23 14:47:20;;;;;;;12.93;5.13;;;;;;;;;;7495997;19;20010;-73
2024/03/23 14:49:52;;;;;;;14.07;5.63;;;;;;;;;;7559233;19;20010;-74
2024/03/23 14:52:24;;;;;;;11.18;4.97;;;;;;;;;;7561918;19;20022;-73
2024/03/23 14:54:56;;;;;;;10.40;4.70;;;;;;;;;;7551404;19;20566;-73
2024/03/23 14:57:29;;;;;;;10.30;4.70;;;;;;;;;;7567359;19;20449;-73
2024/03/23 15:00:04;;;;;;;7.60;3.75;;;;;;;;;;7539785;19;20021;-73
2024/03/23 15:02:36;;;;;;;12.38;4.25;;;;;;;;;;7525177;19;20030;-73
2024/03/23 15:05:09;;;;;;;8.60;4.13;;;;;;;;;;7455577;19;20048;-74
2024/03/23 15:07:41;;;;;;;9.68;4.15;;;;;;;;;;7485235;19;20662;-72
2024/03/23 15:10:13;;;;;;;6.75;3.10;;;;;;;;;;7536353;19;20082;-75
2024/03/23 15:12:45;;;;;;;6.47;3.10;;;;;;;;;;7542084;19;20120;-75